createdAt,value
2023-03-30T00:01:57.690Z,9.70
2023-03-30T00:04:27.244Z,9.60
2023-03-30T00:06:55.290Z,9.70
2023-03-30T00:09:23.539Z,9.60
2023-03-30T00:11:54.778Z,9.60
2023-03-30T00:14:29.497Z,9.50
2023-03-30T00:16:57.523Z,9.50
2023-03-30T00:19:26.303Z,9.40
2023-03-30T00:21:54.362Z,9.50
2023-03-30T00:24:22.132Z,9.50
2023-03-30T00:26:49.896Z,9.50
2023-03-30T00:29:19.006Z,9.50
2023-03-30T00:31:46.776Z,9.50
2023-03-30T00:34:14.606Z,9.40
2023-03-30T00:36:42.387Z,9.40
2023-03-30T00:39:10.145Z,9.60
2023-03-30T00:41:37.914Z,9.40
2023-03-30T00:44:08.726Z,9.40
2023-03-30T00:46:37.851Z,9.40
2023-03-30T00:49:10.156Z,9.30
2023-03-30T00:51:41.604Z,9.30
2023-03-30T00:54:13.122Z,9.30
2023-03-30T00:56:41.675Z,9.30
2023-03-30T00:59:10.280Z,9.30
2023-03-30T01:01:41.333Z,9.40
2023-03-30T01:04:10.852Z,9.30
2023-03-30T01:06:40.981Z,9.30
2023-03-30T01:09:09.302Z,9.30
2023-03-30T01:11:37.158Z,9.30
2023-03-30T01:14:08.919Z,9.30
2023-03-30T01:16:44.988Z,9.40
2023-03-30T01:19:45.957Z,9.30
2023-03-30T01:22:41.870Z,9.30
2023-03-30T01:25:52.358Z,9.30
2023-03-30T01:28:47.338Z,9.30
2023-03-30T01:31:50.091Z,9.30
2023-03-30T01:34:42.880Z,9.30
2023-03-30T01:37:25.044Z,9.30
2023-03-30T01:39:59.761Z,9.30
2023-03-30T01:42:37.334Z,9.20
2023-03-30T01:45:12.373Z,9.20
2023-03-30T01:47:46.371Z,9.20
2023-03-30T01:50:18.904Z,9.20
2023-03-30T01:52:55.234Z,9.20
2023-03-30T01:55:28.730Z,9.20
2023-03-30T01:58:00.647Z,9.20
2023-03-30T02:00:29.525Z,9.30
2023-03-30T02:03:00.025Z,9.30
2023-03-30T02:05:31.163Z,9.30
2023-03-30T02:08:03.969Z,9.40
2023-03-30T02:10:36.035Z,9.40
2023-03-30T02:13:05.771Z,9.40
2023-03-30T02:15:38.172Z,9.40
2023-03-30T02:18:06.337Z,9.40
2023-03-30T02:20:35.721Z,9.40
2023-03-30T02:23:05.875Z,9.40
2023-03-30T02:25:36.058Z,9.40
2023-03-30T02:28:04.062Z,9.40
2023-03-30T02:30:34.006Z,9.50
2023-03-30T02:33:02.039Z,9.60
2023-03-30T02:35:54.718Z,9.60
2023-03-30T02:38:50.519Z,9.60
2023-03-30T02:41:37.611Z,9.60
2023-03-30T02:44:16.929Z,9.60
2023-03-30T02:46:57.563Z,9.60
2023-03-30T02:49:36.054Z,9.50
2023-03-30T02:52:12.276Z,9.50
2023-03-30T02:54:49.925Z,9.50
2023-03-30T02:57:29.387Z,9.50
2023-03-30T03:00:01.572Z,9.50
2023-03-30T03:02:35.270Z,9.50
2023-03-30T03:05:04.469Z,9.40
2023-03-30T03:07:33.711Z,9.40
2023-03-30T03:10:01.698Z,9.40
2023-03-30T03:12:30.816Z,9.30
2023-03-30T03:14:58.687Z,9.30
2023-03-30T03:17:34.494Z,9.20
2023-03-30T03:20:03.649Z,9.20
2023-03-30T03:22:31.884Z,9.20
2023-03-30T03:24:59.610Z,9.20
2023-03-30T03:27:27.382Z,9.10
2023-03-30T03:29:56.489Z,9.10
2023-03-30T03:32:24.319Z,9.00
2023-03-30T03:34:52.132Z,8.90
2023-03-30T03:37:19.966Z,9.00
2023-03-30T03:39:47.734Z,9.10
2023-03-30T03:42:15.550Z,9.20
2023-03-30T03:44:43.279Z,9.20
2023-03-30T03:47:15.269Z,9.30
2023-03-30T03:49:44.249Z,9.30
2023-03-30T03:52:12.603Z,9.20
2023-03-30T03:54:40.406Z,9.20
2023-03-30T03:57:08.271Z,9.20
2023-03-30T03:59:36.068Z,9.20
2023-03-30T04:02:05.406Z,9.20
2023-03-30T04:04:34.736Z,9.20
2023-03-30T04:07:02.542Z,9.20
2023-03-30T04:09:30.419Z,9.30
2023-03-30T04:11:58.184Z,9.20
2023-03-30T04:14:26.017Z,9.40
2023-03-30T04:16:57.706Z,9.40
2023-03-30T04:19:27.638Z,9.40
2023-03-30T04:21:58.786Z,9.50
2023-03-30T04:24:29.523Z,9.50
2023-03-30T04:26:57.564Z,9.60
2023-03-30T04:29:25.410Z,9.50
2023-03-30T04:31:53.195Z,9.60
2023-03-30T04:34:21.651Z,9.60
2023-03-30T04:36:49.486Z,9.50
2023-03-30T04:39:20.710Z,9.60
2023-03-30T04:41:48.508Z,9.60
2023-03-30T04:44:20.294Z,9.50
2023-03-30T04:46:48.087Z,9.40
2023-03-30T04:49:16.309Z,9.40
2023-03-30T04:51:44.065Z,9.40
2023-03-30T04:54:11.855Z,9.50
2023-03-30T04:56:41.474Z,9.50
2023-03-30T04:59:09.277Z,9.40
2023-03-30T05:01:37.109Z,9.40
2023-03-30T05:04:04.948Z,9.40
2023-03-30T05:06:32.874Z,9.50
2023-03-30T05:09:00.840Z,9.50
2023-03-30T05:11:28.625Z,9.50
2023-03-30T05:13:57.694Z,9.60
2023-03-30T05:16:25.543Z,9.60
2023-03-30T05:18:53.368Z,9.60
2023-03-30T05:21:21.251Z,9.60
2023-03-30T05:23:49.042Z,9.60
2023-03-30T05:26:16.894Z,9.60
2023-03-30T05:28:44.754Z,9.50
2023-03-30T05:31:13.959Z,9.50
2023-03-30T05:33:43.831Z,9.50
2023-03-30T05:36:12.324Z,9.50
2023-03-30T05:38:40.561Z,9.50
2023-03-30T05:41:08.908Z,9.50
2023-03-30T05:43:37.023Z,9.60
2023-03-30T05:46:05.518Z,9.60
2023-03-30T05:48:34.873Z,9.60
2023-03-30T05:51:02.779Z,9.60
2023-03-30T05:53:30.905Z,9.60
2023-03-30T05:55:58.689Z,9.60
2023-03-30T05:58:27.277Z,9.60
2023-03-30T06:00:58.428Z,9.70
2023-03-30T06:03:26.585Z,9.70
2023-03-30T06:05:55.745Z,9.70
2023-03-30T06:08:23.543Z,9.80
2023-03-30T06:10:53.922Z,9.80
2023-03-30T06:13:21.737Z,9.80
2023-03-30T06:15:49.537Z,9.80
2023-03-30T06:18:17.446Z,9.80
2023-03-30T06:20:47.529Z,9.80
2023-03-30T06:23:17.111Z,9.90
2023-03-30T06:25:47.357Z,9.90
2023-03-30T06:28:15.111Z,10.00
2023-03-30T06:30:42.915Z,10.00
2023-03-30T06:33:11.488Z,9.90
2023-03-30T06:35:39.323Z,10.00
2023-03-30T06:38:07.316Z,10.00
2023-03-30T06:40:36.902Z,10.10
2023-03-30T06:43:04.655Z,10.10
2023-03-30T06:45:32.692Z,10.20
2023-03-30T06:48:00.517Z,10.20
2023-03-30T06:50:28.333Z,10.30
2023-03-30T06:52:56.454Z,10.30
2023-03-30T06:55:24.268Z,10.40
2023-03-30T06:57:53.443Z,10.50
2023-03-30T07:00:22.246Z,10.60
2023-03-30T07:02:49.999Z,10.80
2023-03-30T07:05:17.965Z,10.90
2023-03-30T07:07:46.532Z,11.00
2023-03-30T07:10:14.297Z,11.10
2023-03-30T07:12:43.237Z,11.10
2023-03-30T07:15:13.442Z,11.10
2023-03-30T07:17:41.524Z,11.10
2023-03-30T07:20:14.765Z,11.10
2023-03-30T07:22:42.801Z,11.10
2023-03-30T07:25:11.476Z,11.20
2023-03-30T07:27:39.355Z,11.20
2023-03-30T07:30:20.755Z,11.20
2023-03-30T07:32:51.658Z,11.30
2023-03-30T07:35:19.598Z,11.30
2023-03-30T07:37:50.736Z,11.30
2023-03-30T07:40:19.396Z,11.30
2023-03-30T07:42:47.702Z,11.30
2023-03-30T07:45:16.739Z,11.30
2023-03-30T07:47:44.727Z,11.30
2023-03-30T07:50:14.008Z,11.30
2023-03-30T07:52:41.751Z,11.30
2023-03-30T07:55:10.889Z,11.30
2023-03-30T07:57:38.676Z,11.30
2023-03-30T08:00:10.004Z,11.30
2023-03-30T08:02:38.149Z,11.30
2023-03-30T08:05:06.584Z,11.30
2023-03-30T08:07:36.531Z,11.40
2023-03-30T08:10:04.978Z,11.40
2023-03-30T08:12:32.789Z,11.40
2023-03-30T08:15:00.904Z,11.40
2023-03-30T08:17:28.693Z,11.40
2023-03-30T08:19:57.065Z,11.40
2023-03-30T08:22:24.962Z,11.40
2023-03-30T08:24:54.108Z,11.40
2023-03-30T08:27:22.033Z,11.40
2023-03-30T08:29:50.582Z,11.40
2023-03-30T08:32:18.348Z,11.40
2023-03-30T08:34:46.333Z,11.40
2023-03-30T08:37:14.267Z,11.40
2023-03-30T08:39:42.307Z,11.40
2023-03-30T08:42:23.058Z,11.40
2023-03-30T08:44:54.557Z,11.40
2023-03-30T08:47:33.517Z,11.40
2023-03-30T08:50:08.341Z,11.40
2023-03-30T08:52:37.233Z,11.40
2023-03-30T08:55:05.567Z,11.40
2023-03-30T08:57:42.476Z,11.40
2023-03-30T09:00:22.076Z,11.50
2023-03-30T09:02:53.876Z,11.50
2023-03-30T09:05:27.423Z,11.50
2023-03-30T09:08:02.132Z,11.60
2023-03-30T09:10:32.773Z,11.50
2023-03-30T09:13:04.655Z,11.50
2023-03-30T09:15:35.974Z,11.50
2023-03-30T09:18:08.511Z,11.50
2023-03-30T09:20:38.976Z,11.50
2023-03-30T09:23:13.668Z,11.50
2023-03-30T09:25:46.999Z,11.60
2023-03-30T09:28:20.658Z,11.60
2023-03-30T09:30:52.919Z,11.70
2023-03-30T09:33:28.812Z,11.80
2023-03-30T09:36:14.264Z,11.80
2023-03-30T09:38:42.623Z,11.80
2023-03-30T09:41:34.402Z,11.90
2023-03-30T09:44:04.142Z,11.90
2023-03-30T09:46:40.336Z,11.90
2023-03-30T09:49:16.572Z,11.90
2023-03-30T09:51:56.029Z,11.90
2023-03-30T09:54:24.627Z,11.90
2023-03-30T09:56:56.897Z,11.90
2023-03-30T09:59:35.316Z,11.90
2023-03-30T10:02:20.135Z,11.90
2023-03-30T10:05:03.295Z,11.90
2023-03-30T10:07:35.150Z,12.00
2023-03-30T10:10:14.474Z,12.00
2023-03-30T10:12:42.484Z,12.00
2023-03-30T10:15:17.195Z,12.00
2023-03-30T10:17:47.260Z,12.10
2023-03-30T10:20:21.568Z,12.20
2023-03-30T10:22:54.890Z,12.20
2023-03-30T10:25:25.191Z,12.20
2023-03-30T10:27:55.710Z,12.30
2023-03-30T10:30:28.265Z,12.30
2023-03-30T10:32:59.100Z,12.30
2023-03-30T10:35:32.100Z,12.30
2023-03-30T10:38:02.808Z,12.40
2023-03-30T10:40:36.461Z,12.40
2023-03-30T10:43:06.915Z,12.40
2023-03-30T10:45:40.431Z,12.50
2023-03-30T10:48:25.650Z,12.50
2023-03-30T10:51:02.734Z,12.60
2023-03-30T10:53:38.642Z,12.60
2023-03-30T10:56:17.799Z,12.60
2023-03-30T10:58:59.225Z,12.70
2023-03-30T11:01:37.273Z,12.80
2023-03-30T11:04:22.548Z,12.80
2023-03-30T11:06:53.123Z,12.80
2023-03-30T11:09:26.011Z,12.90
2023-03-30T11:11:57.021Z,12.90
2023-03-30T11:14:29.861Z,12.90
2023-03-30T11:17:02.801Z,13.00
2023-03-30T11:19:35.892Z,13.20
2023-03-30T11:22:12.877Z,13.30
2023-03-30T11:24:44.462Z,13.40
2023-03-30T11:27:17.209Z,13.50
2023-03-30T11:29:49.547Z,13.60
2023-03-30T11:32:27.750Z,13.50
2023-03-30T11:35:05.204Z,13.50
2023-03-30T11:37:39.526Z,13.50
2023-03-30T11:40:17.412Z,13.50
2023-03-30T11:42:47.128Z,13.50
2023-03-30T11:45:30.342Z,13.40
2023-03-30T11:48:13.145Z,13.30
2023-03-30T11:50:59.317Z,13.20
2023-03-30T11:53:34.742Z,13.10
2023-03-30T11:56:14.793Z,13.20
2023-03-30T11:58:47.152Z,13.40
2023-03-30T12:01:35.387Z,13.60
2023-03-30T12:04:10.468Z,13.60
2023-03-30T12:06:41.104Z,13.50
2023-03-30T12:09:26.484Z,13.50
2023-03-30T12:11:58.309Z,13.40
2023-03-30T12:14:40.657Z,13.40
2023-03-30T12:17:16.924Z,13.40
2023-03-30T12:19:56.654Z,13.40
2023-03-30T12:22:30.272Z,13.40
2023-03-30T12:25:03.535Z,13.40
2023-03-30T12:27:36.614Z,13.50
2023-03-30T12:30:16.383Z,13.60
2023-03-30T12:32:59.931Z,13.60
2023-03-30T12:35:54.540Z,13.70
2023-03-30T12:38:25.319Z,14.00
2023-03-30T12:41:04.554Z,14.20
2023-03-30T12:43:41.121Z,14.30
2023-03-30T12:46:13.826Z,14.30
2023-03-30T12:48:52.743Z,14.40
2023-03-30T12:51:38.598Z,14.60
2023-03-30T12:54:31.079Z,14.70
2023-03-30T12:57:07.872Z,14.80
2023-03-30T13:00:18.901Z,14.80
2023-03-30T13:02:59.854Z,14.70
2023-03-30T13:05:32.445Z,14.60
2023-03-30T13:08:06.808Z,14.40
2023-03-30T13:10:39.842Z,14.30
2023-03-30T13:13:19.617Z,14.20
2023-03-30T13:15:51.623Z,14.10
2023-03-30T13:18:36.020Z,14.10
2023-03-30T13:21:24.309Z,14.00
2023-03-30T13:24:21.788Z,14.00
2023-03-30T13:26:50.994Z,13.90
2023-03-30T13:29:18.871Z,13.90
2023-03-30T13:32:15.606Z,13.90
2023-03-30T13:35:06.915Z,14.00
2023-03-30T13:37:57.734Z,14.10
2023-03-30T13:40:41.636Z,14.20
2023-03-30T13:43:19.875Z,14.30
2023-03-30T13:45:58.246Z,14.40
2023-03-30T13:48:48.986Z,14.60
2023-03-30T13:51:20.519Z,15.00
2023-03-30T13:53:52.725Z,15.30
2023-03-30T13:56:22.818Z,15.40
2023-03-30T13:58:54.713Z,15.40
2023-03-30T14:01:24.455Z,15.40
2023-03-30T14:03:56.339Z,15.40
2023-03-30T14:06:26.262Z,15.30
2023-03-30T14:09:09.974Z,15.20
2023-03-30T14:11:40.875Z,15.10
2023-03-30T14:14:08.919Z,15.20
2023-03-30T14:16:39.273Z,15.10
2023-03-30T14:19:13.388Z,15.20
2023-03-30T14:21:44.361Z,15.20
2023-03-30T14:24:19.728Z,15.20
2023-03-30T14:26:50.329Z,15.10
2023-03-30T14:29:30.296Z,15.20
2023-03-30T14:32:07.979Z,15.30
2023-03-30T14:34:37.354Z,15.40
2023-03-30T14:37:07.705Z,15.40
2023-03-30T14:39:42.461Z,15.40
2023-03-30T14:42:18.584Z,15.60
2023-03-30T14:44:48.589Z,15.50
2023-03-30T14:47:19.894Z,15.60
2023-03-30T14:49:48.347Z,15.60
2023-03-30T14:52:19.705Z,15.70
2023-03-30T14:55:02.397Z,15.70
2023-03-30T14:57:38.776Z,15.70
2023-03-30T15:00:20.032Z,15.70
2023-03-30T15:02:49.859Z,15.50
2023-03-30T15:05:19.012Z,15.40
2023-03-30T15:07:49.246Z,15.30
2023-03-30T15:10:26.486Z,15.30
2023-03-30T15:12:58.059Z,15.20
2023-03-30T15:15:29.264Z,15.10
2023-03-30T15:17:57.682Z,15.00
2023-03-30T15:20:27.867Z,14.90
2023-03-30T15:22:56.799Z,14.80
2023-03-30T15:25:32.060Z,14.70
2023-03-30T15:28:04.496Z,14.70
2023-03-30T15:30:36.297Z,14.60
2023-03-30T15:33:05.648Z,14.50
2023-03-30T15:35:35.599Z,14.40
2023-03-30T15:38:05.480Z,14.20
2023-03-30T15:40:36.871Z,14.00
2023-03-30T15:43:20.676Z,13.80
2023-03-30T15:45:51.488Z,13.80
2023-03-30T15:48:22.502Z,13.80
2023-03-30T15:50:54.993Z,13.80
2023-03-30T15:53:35.714Z,13.80
2023-03-30T15:56:04.488Z,13.80
2023-03-30T15:58:34.614Z,13.80
2023-03-30T16:01:04.416Z,13.80
2023-03-30T16:03:35.211Z,13.80
2023-03-30T16:06:03.172Z,13.80
2023-03-30T16:08:30.947Z,13.80
2023-03-30T16:10:59.050Z,13.80
2023-03-30T16:13:27.193Z,13.80
2023-03-30T16:15:57.505Z,13.80
2023-03-30T16:18:25.325Z,13.90
2023-03-30T16:20:53.104Z,14.00
2023-03-30T16:23:20.944Z,14.10
2023-03-30T16:25:48.784Z,14.10
2023-03-30T16:28:17.954Z,14.20
2023-03-30T16:30:47.803Z,14.20
2023-03-30T16:33:16.954Z,14.20
2023-03-30T16:35:44.819Z,14.20
2023-03-30T16:38:16.407Z,14.10
2023-03-30T16:40:45.993Z,14.10
2023-03-30T16:43:13.846Z,14.10
2023-03-30T16:45:41.611Z,14.00
2023-03-30T16:48:11.948Z,14.10
2023-03-30T16:50:43.240Z,14.00
2023-03-30T16:53:11.873Z,13.90
2023-03-30T16:55:40.662Z,13.70
2023-03-30T16:58:10.168Z,13.60
2023-03-30T17:00:41.510Z,13.40
2023-03-30T17:03:10.418Z,13.20
2023-03-30T17:05:38.952Z,13.10
2023-03-30T17:08:15.278Z,13.00
2023-03-30T17:10:43.354Z,12.90
2023-03-30T17:13:11.420Z,12.80
2023-03-30T17:15:39.253Z,12.70
2023-03-30T17:18:09.009Z,12.70
2023-03-30T17:20:40.491Z,12.60
2023-03-30T17:23:11.762Z,12.50
2023-03-30T17:25:41.762Z,12.40
2023-03-30T17:28:11.340Z,12.10
2023-03-30T17:30:41.703Z,11.80
2023-03-30T17:33:10.694Z,11.50
2023-03-30T17:35:39.480Z,11.40
2023-03-30T17:38:09.247Z,11.20
2023-03-30T17:40:38.963Z,11.10
2023-03-30T17:43:07.597Z,11.00
2023-03-30T17:45:36.997Z,11.00
2023-03-30T17:48:06.731Z,10.90
2023-03-30T17:50:36.237Z,10.90
2023-03-30T17:53:04.307Z,10.90
2023-03-30T17:55:34.183Z,10.80
2023-03-30T17:58:03.294Z,10.70
2023-03-30T18:00:33.245Z,10.70
2023-03-30T18:03:01.713Z,10.60
2023-03-30T18:05:31.836Z,10.40
2023-03-30T18:07:59.958Z,10.40
2023-03-30T18:10:33.673Z,10.30
2023-03-30T18:13:03.425Z,10.20
2023-03-30T18:15:31.604Z,10.10
2023-03-30T18:18:00.643Z,10.00
2023-03-30T18:20:31.307Z,10.00
2023-03-30T18:22:59.254Z,9.90
2023-03-30T18:25:32.351Z,9.90
2023-03-30T18:28:01.282Z,9.80
2023-03-30T18:30:32.798Z,9.70
2023-03-30T18:33:01.133Z,9.70
2023-03-30T18:35:30.625Z,9.60
2023-03-30T18:37:59.232Z,9.50
2023-03-30T18:40:31.265Z,9.50
2023-03-30T18:43:00.935Z,9.40
2023-03-30T18:45:34.056Z,9.30
2023-03-30T18:48:03.201Z,9.30
2023-03-30T18:50:34.766Z,9.20
2023-03-30T18:53:03.241Z,9.10
2023-03-30T18:55:32.055Z,9.10
2023-03-30T18:58:00.097Z,9.10
2023-03-30T19:00:30.417Z,9.10
2023-03-30T19:02:59.913Z,9.10
2023-03-30T19:05:29.006Z,9.10
2023-03-30T19:07:57.494Z,9.10
2023-03-30T19:10:28.449Z,9.00
2023-03-30T19:12:56.926Z,9.00
2023-03-30T19:15:26.834Z,8.90
2023-03-30T19:17:55.023Z,8.90
2023-03-30T19:20:26.930Z,8.90
2023-03-30T19:22:55.133Z,8.90
2023-03-30T19:25:24.636Z,9.00
2023-03-30T19:28:03.039Z,8.90
2023-03-30T19:30:34.802Z,8.90
2023-03-30T19:33:06.027Z,8.80
2023-03-30T19:35:35.610Z,8.80
2023-03-30T19:38:03.821Z,8.70
2023-03-30T19:40:31.609Z,8.60
2023-03-30T19:42:59.363Z,8.50
2023-03-30T19:45:27.096Z,8.40
2023-03-30T19:47:54.903Z,8.40
2023-03-30T19:50:24.758Z,8.40
2023-03-30T19:52:54.811Z,8.40
2023-03-30T19:55:22.797Z,8.40
2023-03-30T19:57:50.840Z,8.40
2023-03-30T20:00:19.677Z,8.40
2023-03-30T20:02:49.213Z,8.40
2023-03-30T20:05:17.386Z,8.50
2023-03-30T20:07:46.843Z,8.40
2023-03-30T20:10:18.970Z,8.40
2023-03-30T20:12:47.589Z,8.40
2023-03-30T20:15:15.803Z,8.40
2023-03-30T20:17:43.921Z,8.40
2023-03-30T20:20:16.706Z,8.40
2023-03-30T20:22:46.295Z,8.30
2023-03-30T20:25:16.656Z,8.30
2023-03-30T20:27:44.488Z,8.20
2023-03-30T20:30:13.522Z,8.20
2023-03-30T20:32:41.379Z,8.10
2023-03-30T20:35:12.381Z,8.00
2023-03-30T20:37:40.148Z,8.00
2023-03-30T20:40:11.674Z,8.00
2023-03-30T20:42:44.188Z,8.00
2023-03-30T20:45:13.724Z,8.00
2023-03-30T20:47:41.659Z,8.00
2023-03-30T20:50:12.088Z,8.00
2023-03-30T20:52:39.858Z,8.10
2023-03-30T20:55:09.142Z,8.10
2023-03-30T20:57:36.920Z,8.00
2023-03-30T21:00:07.648Z,8.10
2023-03-30T21:02:35.572Z,8.10
2023-03-30T21:05:03.844Z,8.20
2023-03-30T21:07:31.623Z,8.30
2023-03-30T21:09:59.654Z,8.30
2023-03-30T21:12:28.810Z,8.50
2023-03-30T21:14:56.577Z,8.60
2023-03-30T21:17:26.121Z,8.60
2023-03-30T21:19:53.910Z,8.70
2023-03-30T21:22:21.646Z,8.80
2023-03-30T21:24:49.410Z,8.90
2023-03-30T21:27:17.167Z,9.10
2023-03-30T21:29:44.938Z,9.10
2023-03-30T21:32:12.761Z,9.20
2023-03-30T21:34:41.875Z,9.30
2023-03-30T21:37:09.768Z,9.40
2023-03-30T21:39:37.620Z,9.50
2023-03-30T21:42:05.766Z,9.50
2023-03-30T21:44:34.732Z,9.60
2023-03-30T21:47:02.568Z,9.60
2023-03-30T21:49:30.635Z,9.70
2023-03-30T21:51:59.759Z,9.70
2023-03-30T21:54:27.523Z,9.70
2023-03-30T21:56:55.316Z,9.80
2023-03-30T21:59:23.124Z,9.70
2023-03-30T22:01:50.953Z,9.80
2023-03-30T22:04:18.725Z,9.80
2023-03-30T22:06:46.661Z,9.80
2023-03-30T22:09:15.787Z,9.80
2023-03-30T22:11:43.563Z,9.80
2023-03-30T22:14:11.308Z,9.80
2023-03-30T22:16:39.152Z,9.80
2023-03-30T22:19:07.026Z,9.80
2023-03-30T22:21:35.384Z,9.80
2023-03-30T22:24:04.211Z,9.80
2023-03-30T22:26:33.841Z,9.80
2023-03-30T22:29:01.637Z,9.80
2023-03-30T22:31:29.448Z,9.80
2023-03-30T22:33:57.453Z,9.80
2023-03-30T22:36:29.742Z,9.80
2023-03-30T22:38:58.612Z,9.80
2023-03-30T22:41:26.886Z,9.80
2023-03-30T22:43:58.212Z,9.80
2023-03-30T22:46:27.890Z,9.70
2023-03-30T22:48:56.434Z,9.70
2023-03-30T22:51:26.123Z,9.70
2023-03-30T22:53:56.293Z,9.70
2023-03-30T22:56:24.063Z,9.70
2023-03-30T22:58:51.812Z,9.70
2023-03-30T23:01:21.455Z,9.70
2023-03-30T23:03:49.566Z,9.70
2023-03-30T23:06:18.696Z,9.60
2023-03-30T23:08:47.222Z,9.60
2023-03-30T23:11:15.005Z,9.60
2023-03-30T23:13:42.826Z,9.50
2023-03-30T23:16:10.683Z,9.50
2023-03-30T23:18:40.374Z,9.40
2023-03-30T23:21:10.961Z,9.40
2023-03-30T23:23:39.870Z,9.30
2023-03-30T23:26:10.096Z,9.30
2023-03-30T23:28:41.125Z,9.30
2023-03-30T23:31:10.634Z,9.30
2023-03-30T23:33:39.924Z,9.20
2023-03-30T23:36:08.931Z,9.20
2023-03-30T23:38:37.216Z,9.20
2023-03-30T23:41:05.905Z,9.20
2023-03-30T23:43:33.797Z,9.10
2023-03-30T23:46:01.764Z,9.10
2023-03-30T23:48:29.893Z,9.10
2023-03-30T23:50:59.332Z,9.00
2023-03-30T23:53:27.148Z,9.00
2023-03-30T23:55:55.374Z,8.90
2023-03-30T23:58:23.642Z,8.90
